createdAt,value
2018-06-25T00:02:29.637Z,1.40
2018-06-25T00:05:00.309Z,1.50
2018-06-25T00:07:31.137Z,1.43
2018-06-25T00:10:01.890Z,1.67
2018-06-25T00:12:32.369Z,1.73
2018-06-25T00:15:03.150Z,1.47
2018-06-25T00:17:34.147Z,1.67
2018-06-25T00:20:04.922Z,1.73
2018-06-25T00:22:35.653Z,1.50
2018-06-25T00:25:05.841Z,1.70
2018-06-25T00:27:36.921Z,1.37
2018-06-25T00:30:07.641Z,1.70
2018-06-25T00:32:37.789Z,1.53
2018-06-25T00:35:08.650Z,1.60
2018-06-25T00:37:39.390Z,1.43
2018-06-25T00:40:10.221Z,1.70
2018-06-25T00:42:41.006Z,1.63
2018-06-25T00:45:11.433Z,1.47
2018-06-25T00:47:41.441Z,1.40
2018-06-25T00:50:12.221Z,1.80
2018-06-25T00:52:42.836Z,1.70
2018-06-25T00:55:13.541Z,1.70
2018-06-25T00:57:44.230Z,1.87
2018-06-25T01:00:14.970Z,1.93
2018-06-25T01:02:45.609Z,1.80
2018-06-25T01:05:16.431Z,1.70
2018-06-25T01:07:47.117Z,2.00
2018-06-25T01:10:17.397Z,1.70
2018-06-25T01:12:48.174Z,2.00
2018-06-25T01:15:18.528Z,2.13
2018-06-25T01:17:48.922Z,1.83
2018-06-25T01:20:19.709Z,1.70
2018-06-25T01:22:50.253Z,2.03
2018-06-25T01:25:21.049Z,2.13
2018-06-25T01:27:51.709Z,2.30
2018-06-25T01:30:22.473Z,2.00
2018-06-25T01:32:53.118Z,2.00
2018-06-25T01:35:24.085Z,2.10
2018-06-25T01:37:54.666Z,2.13
2018-06-25T01:40:25.512Z,1.77
2018-06-25T01:42:56.137Z,2.27
2018-06-25T01:45:26.710Z,2.10
2018-06-25T01:47:57.365Z,2.23
2018-06-25T01:50:28.420Z,1.90
2018-06-25T01:52:58.623Z,2.00
2018-06-25T01:55:30.288Z,1.83
2018-06-25T01:58:00.817Z,2.60
2018-06-25T02:00:31.557Z,2.30
2018-06-25T02:03:02.105Z,2.30
2018-06-25T02:05:32.860Z,2.33
2018-06-25T02:08:02.948Z,2.60
2018-06-25T02:10:33.572Z,2.00
2018-06-25T02:13:04.304Z,2.73
2018-06-25T02:15:34.937Z,2.20
2018-06-25T02:18:05.754Z,2.80
2018-06-25T02:20:36.498Z,2.60
2018-06-25T02:23:07.242Z,2.30
2018-06-25T02:25:37.974Z,2.27
2018-06-25T02:28:09.888Z,3.20
2018-06-25T02:30:40.773Z,3.37
2018-06-25T02:33:11.546Z,3.20
2018-06-25T02:35:41.745Z,3.87
2018-06-25T02:38:12.353Z,3.97
2018-06-25T02:40:43.007Z,2.93
2018-06-25T02:43:13.497Z,3.27
2018-06-25T02:45:44.149Z,3.87
2018-06-25T02:48:14.921Z,3.20
2018-06-25T02:50:45.165Z,3.67
2018-06-25T02:53:15.932Z,3.63
2018-06-25T02:55:46.489Z,3.10
2018-06-25T02:58:17.232Z,3.43
2018-06-25T03:00:47.978Z,3.70
2018-06-25T03:03:18.240Z,3.87
2018-06-25T03:05:48.882Z,3.70
2018-06-25T03:08:19.762Z,4.30
2018-06-25T03:10:49.909Z,3.83
2018-06-25T03:13:20.983Z,8.17
2018-06-25T03:15:51.621Z,11.80
2018-06-25T03:18:22.396Z,11.27
2018-06-25T03:20:53.103Z,10.67
2018-06-25T03:23:24.174Z,10.60
2018-06-25T03:25:54.810Z,10.77
2018-06-25T03:28:25.638Z,10.07
2018-06-25T03:30:56.314Z,9.33
2018-06-25T03:33:27.145Z,8.93
2018-06-25T03:35:57.236Z,9.20
2018-06-25T03:38:28.145Z,7.93
2018-06-25T03:40:58.813Z,7.37
2018-06-25T03:43:29.837Z,7.00
2018-06-25T03:46:00.469Z,5.93
2018-06-25T03:48:31.310Z,5.33
2018-06-25T03:51:01.968Z,5.20
2018-06-25T03:53:32.763Z,5.93
2018-06-25T03:56:03.494Z,6.30
2018-06-25T03:58:34.213Z,8.37
2018-06-25T04:01:04.879Z,5.23
2018-06-25T04:03:35.695Z,13.63
2018-06-25T04:06:06.326Z,20.50
2018-06-25T04:08:37.153Z,13.87
2018-06-25T04:11:07.870Z,7.57
2018-06-25T04:13:38.914Z,10.30
2018-06-25T04:16:09.733Z,6.33
2018-06-25T04:18:40.573Z,5.57
2018-06-25T04:21:11.353Z,6.27
2018-06-25T04:23:42.168Z,6.73
2018-06-25T04:26:12.814Z,5.23
2018-06-25T04:28:43.661Z,5.67
2018-06-25T04:31:14.277Z,4.57
2018-06-25T04:33:45.514Z,4.23
2018-06-25T04:36:16.111Z,4.13
2018-06-25T04:38:46.997Z,4.87
2018-06-25T04:41:17.621Z,3.57
2018-06-25T04:43:48.429Z,3.30
2018-06-25T04:46:19.078Z,3.23
2018-06-25T04:48:49.913Z,3.00
2018-06-25T04:51:20.526Z,3.00
2018-06-25T04:53:51.337Z,3.30
2018-06-25T04:56:22.069Z,3.00
2018-06-25T04:58:53.907Z,3.37
2018-06-25T05:01:24.742Z,2.70
2018-06-25T05:03:54.953Z,2.43
2018-06-25T05:06:25.217Z,2.37
2018-06-25T05:08:55.961Z,2.33
2018-06-25T05:11:26.933Z,2.40
2018-06-25T05:13:57.661Z,2.30
2018-06-25T05:16:28.348Z,2.23
2018-06-25T05:18:59.372Z,2.07
2018-06-25T05:21:30.274Z,2.00
2018-06-25T05:24:01.451Z,3.60
2018-06-25T05:26:32.128Z,2.87
2018-06-25T05:29:02.961Z,2.23
2018-06-25T05:31:33.546Z,1.90
2018-06-25T05:34:04.422Z,3.73
2018-06-25T05:36:35.121Z,4.37
2018-06-25T05:39:09.246Z,2.27
2018-06-25T05:41:40.186Z,3.90
2018-06-25T05:44:10.926Z,4.67
2018-06-25T05:46:41.601Z,10.73
2018-06-25T05:49:12.478Z,2.83
2018-06-25T05:51:43.102Z,2.10
2018-06-25T05:54:13.243Z,2.20
2018-06-25T05:56:43.580Z,4.23
2018-06-25T05:59:14.152Z,2.37
2018-06-25T06:01:45.178Z,2.47
2018-06-25T06:04:16.049Z,2.70
2018-06-25T06:06:46.949Z,3.27
2018-06-25T06:09:17.694Z,13.23
2018-06-25T06:11:48.434Z,3.17
2018-06-25T06:14:19.158Z,2.77
2018-06-25T06:16:49.707Z,2.70
2018-06-25T06:19:20.419Z,2.40
2018-06-25T06:21:51.233Z,2.20
2018-06-25T06:24:22.277Z,2.00
2018-06-25T06:26:52.822Z,2.00
2018-06-25T06:29:23.008Z,1.80
2018-06-25T06:31:53.909Z,1.77
2018-06-25T06:34:24.584Z,3.30
2018-06-25T06:36:55.265Z,3.17
2018-06-25T06:39:25.941Z,2.50
2018-06-25T06:41:57.074Z,1.90
2018-06-25T06:44:27.722Z,3.00
2018-06-25T06:46:58.586Z,2.20
2018-06-25T06:49:29.257Z,2.70
2018-06-25T06:52:00.123Z,1.67
2018-06-25T06:54:30.592Z,1.50
2018-06-25T06:57:01.911Z,1.30
2018-06-25T06:59:32.593Z,1.27
2018-06-25T07:02:03.297Z,1.10
2018-06-25T07:04:33.289Z,1.00
2018-06-25T07:07:04.037Z,3.07
2018-06-25T07:09:34.863Z,1.77
2018-06-25T07:12:05.581Z,1.53
2018-06-25T07:14:36.365Z,2.03
2018-06-25T07:17:07.117Z,1.60
2018-06-25T07:19:37.826Z,1.50
2018-06-25T07:22:08.357Z,21.27
2018-06-25T07:24:39.319Z,2.90
2018-06-25T07:27:10.029Z,1.70
2018-06-25T07:29:40.922Z,3.30
2018-06-25T07:32:11.549Z,3.07
2018-06-25T07:34:42.440Z,9.53
2018-06-25T07:37:13.226Z,4.37
2018-06-25T07:39:44.133Z,1.20
2018-06-25T07:42:14.839Z,1.40
2018-06-25T07:44:46.601Z,1.27
2018-06-25T07:47:17.330Z,1.40
2018-06-25T07:49:58.024Z,1.67
2018-06-25T07:52:28.726Z,1.07
2018-06-25T07:54:59.617Z,1.20
2018-06-25T07:57:30.269Z,0.90
2018-06-25T08:00:00.933Z,1.00
2018-06-25T08:02:31.558Z,1.13
2018-06-25T08:05:02.321Z,0.93
2018-06-25T08:07:32.948Z,1.03
2018-06-25T08:10:05.380Z,1.10
2018-06-25T08:12:35.989Z,1.20
2018-06-25T08:15:07.030Z,1.13
2018-06-25T08:17:37.689Z,1.77
2018-06-25T08:20:08.615Z,1.13
2018-06-25T08:22:39.335Z,1.30
2018-06-25T08:25:10.134Z,1.10
2018-06-25T08:27:41.002Z,1.00
2018-06-25T08:30:12.332Z,0.90
2018-06-25T08:32:42.897Z,0.97
2018-06-25T08:35:13.670Z,1.27
2018-06-25T08:37:44.165Z,1.33
2018-06-25T08:40:15.008Z,1.20
2018-06-25T08:42:45.943Z,0.93
2018-06-25T08:45:17.108Z,0.77
2018-06-25T08:47:47.913Z,1.70
2018-06-25T08:50:19.780Z,1.07
2018-06-25T08:52:50.286Z,1.30
2018-06-25T08:55:20.952Z,1.50
2018-06-25T08:57:51.649Z,0.70
2018-06-25T09:00:22.974Z,2.53
2018-06-25T09:02:53.686Z,7.33
2018-06-25T09:05:24.551Z,1.40
2018-06-25T09:07:55.246Z,0.90
2018-06-25T09:10:25.958Z,2.53
2018-06-25T09:12:56.598Z,1.20
2018-06-25T09:15:27.253Z,1.10
2018-06-25T09:17:57.387Z,1.20
2018-06-25T09:20:28.022Z,0.90
2018-06-25T09:22:58.814Z,1.20
2018-06-25T09:25:29.841Z,2.50
2018-06-25T09:28:04.283Z,1.10
2018-06-25T09:30:34.938Z,1.10
2018-06-25T09:33:05.650Z,1.33
2018-06-25T09:35:35.808Z,1.10
2018-06-25T09:38:06.441Z,1.00
2018-06-25T09:40:37.278Z,1.30
2018-06-25T09:43:07.414Z,9.90
2018-06-25T09:45:38.321Z,0.90
2018-06-25T09:48:09.032Z,1.00
2018-06-25T09:50:39.705Z,1.20
2018-06-25T09:53:10.466Z,1.20
2018-06-25T09:55:41.321Z,4.97
2018-06-25T09:58:11.792Z,7.47
2018-06-25T10:00:47.209Z,1.37
2018-06-25T10:03:17.875Z,2.40
2018-06-25T10:05:48.762Z,1.03
2018-06-25T10:08:19.404Z,0.90
2018-06-25T10:10:50.095Z,1.87
2018-06-25T10:13:20.935Z,1.10
2018-06-25T10:15:52.081Z,1.57
2018-06-25T10:18:22.815Z,1.10
2018-06-25T10:20:53.694Z,2.27
2018-06-25T10:23:24.373Z,0.83
2018-06-25T10:25:55.168Z,1.10
2018-06-25T10:28:25.908Z,1.20
2018-06-25T10:30:56.593Z,1.00
2018-06-25T10:33:26.777Z,1.43
2018-06-25T10:35:57.794Z,0.90
2018-06-25T10:38:28.556Z,1.00
2018-06-25T10:40:59.394Z,4.77
2018-06-25T10:43:30.042Z,1.73
2018-06-25T10:46:01.062Z,1.00
2018-06-25T10:48:31.986Z,0.90
2018-06-25T10:51:03.251Z,5.20
2018-06-25T10:53:34.054Z,3.87
2018-06-25T10:56:05.097Z,1.37
2018-06-25T10:58:35.722Z,1.33
2018-06-25T11:01:06.910Z,1.47
2018-06-25T11:03:38.309Z,2.33
2018-06-25T11:06:20.501Z,1.23
2018-06-25T11:08:52.761Z,1.30
2018-06-25T11:11:25.417Z,1.43
2018-06-25T11:13:55.957Z,1.33
2018-06-25T11:16:26.611Z,1.30
2018-06-25T11:18:58.310Z,4.13
2018-06-25T11:21:29.122Z,1.17
2018-06-25T11:23:59.730Z,1.00
2018-06-25T11:26:30.113Z,1.00
2018-06-25T11:29:00.966Z,1.70
2018-06-25T11:31:31.270Z,1.07
2018-06-25T11:34:02.109Z,1.10
2018-06-25T11:36:33.057Z,1.30
2018-06-25T11:39:03.846Z,1.13
2018-06-25T11:41:34.601Z,1.30
2018-06-25T11:44:05.375Z,1.13
2018-06-25T11:46:36.197Z,1.27
2018-06-25T11:49:06.898Z,1.80
2018-06-25T11:51:37.842Z,1.30
2018-06-25T11:54:08.977Z,1.10
2018-06-25T11:56:39.744Z,1.03
2018-06-25T11:59:10.367Z,1.43
2018-06-25T12:01:43.737Z,1.27
2018-06-25T12:04:14.309Z,1.30
2018-06-25T12:06:45.092Z,3.73
2018-06-25T12:09:15.719Z,1.30
2018-06-25T12:11:46.437Z,1.50
2018-06-25T12:14:17.154Z,1.57
2018-06-25T12:16:48.813Z,1.30
2018-06-25T12:19:19.345Z,1.53
2018-06-25T12:21:50.290Z,1.10
2018-06-25T12:24:20.953Z,1.30
2018-06-25T12:26:51.819Z,1.23
2018-06-25T12:29:21.985Z,1.60
2018-06-25T12:31:52.564Z,3.00
2018-06-25T12:34:22.857Z,1.23
2018-06-25T12:36:53.543Z,1.60
2018-06-25T12:39:24.196Z,1.20
2018-06-25T12:41:54.974Z,1.20
2018-06-25T12:44:25.718Z,1.23
2018-06-25T12:46:56.378Z,1.90
2018-06-25T12:49:26.920Z,1.33
2018-06-25T12:51:57.682Z,1.47
2018-06-25T12:54:28.430Z,1.30
2018-06-25T12:56:58.888Z,1.20
2018-06-25T12:59:29.547Z,2.07
2018-06-25T13:02:00.313Z,1.20
2018-06-25T13:04:31.090Z,1.57
2018-06-25T13:07:01.893Z,1.17
2018-06-25T13:09:32.422Z,1.03
2018-06-25T13:12:03.030Z,1.20
2018-06-25T13:14:33.806Z,1.90
2018-06-25T13:17:04.529Z,1.50
2018-06-25T13:19:34.674Z,2.30
2018-06-25T13:22:05.416Z,1.77
2018-06-25T13:24:36.338Z,2.53
2018-06-25T13:27:07.209Z,1.50
2018-06-25T13:29:37.665Z,1.57
2018-06-25T13:32:08.441Z,1.80
2018-06-25T13:34:39.079Z,2.00
2018-06-25T13:37:09.801Z,3.47
2018-06-25T13:39:40.413Z,1.60
2018-06-25T13:42:11.105Z,1.53
2018-06-25T13:44:41.677Z,1.50
2018-06-25T13:47:12.646Z,4.03
2018-06-25T13:49:43.349Z,1.07
2018-06-25T13:52:14.222Z,1.43
2018-06-25T13:54:44.357Z,1.40
2018-06-25T13:57:15.274Z,1.43
2018-06-25T13:59:45.977Z,1.40
2018-06-25T14:02:16.923Z,1.47
2018-06-25T14:04:47.470Z,1.50
2018-06-25T14:07:18.171Z,1.50
2018-06-25T14:09:48.854Z,1.40
2018-06-25T14:12:19.790Z,1.67
2018-06-25T14:14:50.511Z,1.87
2018-06-25T14:17:21.313Z,1.60
2018-06-25T14:19:51.950Z,1.50
2018-06-25T14:22:34.351Z,1.47
2018-06-25T14:25:12.183Z,2.60
2018-06-25T14:27:48.056Z,1.10
2018-06-25T14:30:23.189Z,1.47
2018-06-25T14:32:58.429Z,1.40
2018-06-25T14:35:28.480Z,1.90
2018-06-25T14:37:59.190Z,1.60
2018-06-25T14:40:29.451Z,1.70
2018-06-25T14:42:59.833Z,1.60
2018-06-25T14:45:29.989Z,1.70
2018-06-25T14:48:00.889Z,1.63
2018-06-25T14:50:31.069Z,1.43
2018-06-25T14:53:01.838Z,1.93
2018-06-25T14:55:32.726Z,1.80
2018-06-25T14:58:04.868Z,1.60
2018-06-25T15:00:35.686Z,1.47
2018-06-25T15:03:06.409Z,1.63
2018-06-25T15:05:37.110Z,1.83
2018-06-25T15:08:08.019Z,1.60
2018-06-25T15:10:39.149Z,2.53
2018-06-25T15:13:10.516Z,1.40
2018-06-25T15:15:41.170Z,1.50
2018-06-25T15:18:11.506Z,1.80
2018-06-25T15:20:42.186Z,1.77
2018-06-25T15:23:12.957Z,2.57
2018-06-25T15:25:43.256Z,1.60
2018-06-25T15:28:14.113Z,2.10
2018-06-25T15:30:44.755Z,3.30
2018-06-25T15:33:15.825Z,1.77
2018-06-25T15:35:46.531Z,3.70
2018-06-25T15:38:17.369Z,6.03
2018-06-25T15:40:48.043Z,2.03
2018-06-25T15:43:19.098Z,2.73
2018-06-25T15:45:49.919Z,2.67
2018-06-25T15:48:20.661Z,2.73
2018-06-25T15:50:51.336Z,1.87
2018-06-25T15:53:22.068Z,1.60
2018-06-25T15:55:52.805Z,1.67
2018-06-25T15:58:23.693Z,1.50
2018-06-25T16:00:54.373Z,1.67
2018-06-25T16:03:25.114Z,1.73
2018-06-25T16:05:55.736Z,1.40
2018-06-25T16:08:27.299Z,1.10
2018-06-25T16:10:57.849Z,1.20
2018-06-25T16:13:28.641Z,1.00
2018-06-25T16:15:59.288Z,2.30
2018-06-25T16:18:29.971Z,1.20
2018-06-25T16:21:00.608Z,1.40
2018-06-25T16:23:31.330Z,1.07
2018-06-25T16:26:01.617Z,1.20
2018-06-25T16:28:32.319Z,1.40
2018-06-25T16:31:03.126Z,1.10
2018-06-25T16:33:34.023Z,1.00
2018-06-25T16:36:04.742Z,1.13
2018-06-25T16:38:35.439Z,1.10
2018-06-25T16:41:06.074Z,1.20
2018-06-25T16:43:36.703Z,1.20
2018-06-25T16:46:07.483Z,1.20
2018-06-25T16:48:38.082Z,1.00
2018-06-25T16:51:08.770Z,1.00
2018-06-25T16:53:39.638Z,1.30
2018-06-25T16:56:10.170Z,1.40
2018-06-25T16:58:41.538Z,1.30
2018-06-25T17:01:11.866Z,1.20
2018-06-25T17:03:42.712Z,1.63
2018-06-25T17:06:13.438Z,1.37
2018-06-25T17:08:43.993Z,1.20
2018-06-25T17:11:14.719Z,1.20
2018-06-25T17:13:45.389Z,1.33
2018-06-25T17:16:15.916Z,1.43
2018-06-25T17:18:46.289Z,1.20
2018-06-25T17:21:16.906Z,1.40
2018-06-25T17:23:47.510Z,1.20
2018-06-25T17:26:18.128Z,1.40
2018-06-25T17:28:49.207Z,1.70
2018-06-25T17:31:19.839Z,1.60
2018-06-25T17:33:50.669Z,1.30
2018-06-25T17:36:21.305Z,1.30
2018-06-25T17:38:51.704Z,1.80
2018-06-25T17:41:22.353Z,1.10
2018-06-25T17:43:53.128Z,1.30
2018-06-25T17:46:23.875Z,1.30
2018-06-25T17:48:54.340Z,1.27
2018-06-25T17:51:25.093Z,2.17
2018-06-25T17:53:55.261Z,1.70
2018-06-25T17:56:25.826Z,1.90
2018-06-25T17:58:56.815Z,1.90
2018-06-25T18:01:27.537Z,2.03
2018-06-25T18:03:58.316Z,1.73
2018-06-25T18:06:28.957Z,2.10
2018-06-25T18:08:59.197Z,1.40
2018-06-25T18:11:29.986Z,1.20
2018-06-25T18:14:00.903Z,1.53
2018-06-25T18:16:31.711Z,1.63
2018-06-25T18:19:02.453Z,1.37
2018-06-25T18:21:32.970Z,1.47
2018-06-25T18:24:03.698Z,1.37
2018-06-25T18:26:34.383Z,1.30
2018-06-25T18:29:05.062Z,1.23
2018-06-25T18:31:35.765Z,1.40
2018-06-25T18:34:06.630Z,1.40
2018-06-25T18:36:37.256Z,1.50
2018-06-25T18:39:12.622Z,1.50
2018-06-25T18:41:44.174Z,1.60
2018-06-25T18:44:15.058Z,1.47
2018-06-25T18:46:45.627Z,1.20
2018-06-25T18:49:16.674Z,1.43
2018-06-25T18:51:47.430Z,1.70
2018-06-25T18:54:18.206Z,1.63
2018-06-25T18:56:49.020Z,1.43
2018-06-25T18:59:19.826Z,1.40
2018-06-25T19:01:50.594Z,1.70
2018-06-25T19:04:21.454Z,1.50
2018-06-25T19:06:52.046Z,1.70
2018-06-25T19:09:22.954Z,1.77
2018-06-25T19:11:53.594Z,1.73
2018-06-25T19:14:24.299Z,1.53
2018-06-25T19:16:54.842Z,1.60
2018-06-25T19:19:25.618Z,1.83
2018-06-25T19:21:56.281Z,2.10
2018-06-25T19:24:27.242Z,1.90
2018-06-25T19:26:58.014Z,1.80
2018-06-25T19:29:28.873Z,1.70
2018-06-25T19:31:59.736Z,1.40
2018-06-25T19:34:30.637Z,1.27
2018-06-25T19:37:01.372Z,1.10
2018-06-25T19:39:31.654Z,1.50
2018-06-25T19:42:02.157Z,1.57
2018-06-25T19:44:32.317Z,1.37
2018-06-25T19:47:02.847Z,1.30
2018-06-25T19:49:33.821Z,1.23
2018-06-25T19:52:04.430Z,1.20
2018-06-25T19:54:35.203Z,1.30
2018-06-25T19:57:05.334Z,1.50
2018-06-25T19:59:36.376Z,1.57
2018-06-25T20:02:07.089Z,1.40
2018-06-25T20:04:37.245Z,1.07
2018-06-25T20:07:07.901Z,1.30
2018-06-25T20:09:38.714Z,1.20
2018-06-25T20:12:09.142Z,1.30
2018-06-25T20:14:40.112Z,1.10
2018-06-25T20:17:10.790Z,1.47
2018-06-25T20:19:41.571Z,1.27
2018-06-25T20:22:12.386Z,1.27
2018-06-25T20:24:43.523Z,1.90
2018-06-25T20:27:14.338Z,2.13
2018-06-25T20:29:45.054Z,1.30
2018-06-25T20:32:15.623Z,1.40
2018-06-25T20:34:46.504Z,1.07
2018-06-25T20:37:17.200Z,1.20
2018-06-25T20:39:47.824Z,1.20
2018-06-25T20:42:18.569Z,1.20
2018-06-25T20:44:50.190Z,1.43
2018-06-25T20:47:21.428Z,1.40
2018-06-25T20:50:00.338Z,1.13
2018-06-25T20:52:31.590Z,1.00
2018-06-25T20:55:02.739Z,1.77
2018-06-25T20:57:33.314Z,1.10
2018-06-25T21:00:04.990Z,0.97
2018-06-25T21:02:35.073Z,1.40
2018-06-25T21:05:06.047Z,1.33
2018-06-25T21:07:36.870Z,1.20
2018-06-25T21:10:07.253Z,1.33
2018-06-25T21:12:38.042Z,1.20
2018-06-25T21:15:08.811Z,1.30
2018-06-25T21:17:39.426Z,1.20
2018-06-25T21:20:10.194Z,1.03
2018-06-25T21:22:40.908Z,1.10
2018-06-25T21:25:11.774Z,1.10
2018-06-25T21:27:42.454Z,1.30
2018-06-25T21:30:13.105Z,1.00
2018-06-25T21:32:43.785Z,1.10
2018-06-25T21:35:14.661Z,0.83
2018-06-25T21:37:45.366Z,0.97
2018-06-25T21:40:16.391Z,1.27
2018-06-25T21:42:46.908Z,1.10
2018-06-25T21:45:17.870Z,1.10
2018-06-25T21:47:48.361Z,1.30
2018-06-25T21:50:19.482Z,1.13
2018-06-25T21:52:50.318Z,1.10
2018-06-25T21:55:21.177Z,1.20
2018-06-25T21:57:52.000Z,1.07
2018-06-25T22:00:22.636Z,1.13
2018-06-25T22:02:53.372Z,1.17
2018-06-25T22:05:24.469Z,1.10
2018-06-25T22:07:55.234Z,1.13
2018-06-25T22:10:26.113Z,1.27
2018-06-25T22:12:56.829Z,1.20
2018-06-25T22:15:27.415Z,1.30
2018-06-25T22:17:58.182Z,1.60
2018-06-25T22:20:28.970Z,1.40
2018-06-25T22:22:59.654Z,1.57
2018-06-25T22:25:30.297Z,1.63
2018-06-25T22:28:01.078Z,1.50
2018-06-25T22:30:32.062Z,1.83
2018-06-25T22:33:02.801Z,1.80
2018-06-25T22:35:33.748Z,1.80
2018-06-25T22:38:04.246Z,2.00
2018-06-25T22:40:34.176Z,1.70
2018-06-25T22:43:04.902Z,1.53
2018-06-25T22:45:35.881Z,1.57
2018-06-25T22:48:06.660Z,1.57
2018-06-25T22:50:37.561Z,1.53
2018-06-25T22:53:08.206Z,1.90
2018-06-25T22:55:38.603Z,1.80
2018-06-25T22:58:09.120Z,1.80
2018-06-25T23:00:40.011Z,1.77
2018-06-25T23:03:10.504Z,1.40
2018-06-25T23:05:40.601Z,1.60
2018-06-25T23:08:11.136Z,1.70
2018-06-25T23:10:41.249Z,1.77
2018-06-25T23:13:11.915Z,1.67
2018-06-25T23:15:42.794Z,1.80
2018-06-25T23:18:13.421Z,1.60
2018-06-25T23:20:44.163Z,2.00
2018-06-25T23:23:14.697Z,1.80
2018-06-25T23:25:45.605Z,1.83
2018-06-25T23:28:16.327Z,1.90
2018-06-25T23:30:46.757Z,2.03
2018-06-25T23:33:17.461Z,2.03
2018-06-25T23:35:47.781Z,1.87
2018-06-25T23:38:18.317Z,2.07
2018-06-25T23:40:49.042Z,1.90
2018-06-25T23:43:19.201Z,1.93
2018-06-25T23:45:49.857Z,1.93
2018-06-25T23:48:20.689Z,2.20
2018-06-25T23:50:51.483Z,1.70
2018-06-25T23:53:21.504Z,2.10
2018-06-25T23:55:52.071Z,2.20
2018-06-25T23:58:22.790Z,2.13
